Time;durP1;ratioP1;P1;durP2;ratioP2;P2;SDS_P1;SDS_P2;PMS_P1;PMS_P2;Temp;Humidity;BMP_temperature;BMP_pressure;BME280_temperature;BME280_humidity;BME280_pressure;Samples;Min_cycle;Max_cycle;Signal;HPM_P1;HPM_P2
2023/04/08 00:01:06;;;;;;;7.28;4.00;;;5.80;99.90;;;;;;5061715;28;20114;-37
2023/04/08 00:03:31;;;;;;;8.40;3.95;;;5.70;99.90;;;;;;5060570;28;20048;-37
2023/04/08 00:05:59;;;;;;;5.85;3.47;;;5.70;99.90;;;;;;5062241;28;20593;-37
2023/04/08 00:08:25;;;;;;;6.55;3.05;;;5.70;99.90;;;;;;5062710;28;20044;-37
2023/04/08 00:10:50;;;;;;;8.05;3.58;;;5.60;99.90;;;;;;5040051;28;20057;-37
2023/04/08 00:13:16;;;;;;;8.88;3.92;;;5.60;99.90;;;;;;5060380;28;20129;-37
2023/04/08 00:15:42;;;;;;;6.82;3.58;;;5.60;99.90;;;;;;5061290;28;20110;-37
2023/04/08 00:18:07;;;;;;;6.90;4.40;;;5.60;99.90;;;;;;5057029;28;20064;-38
2023/04/08 00:20:33;;;;;;;7.13;3.88;;;5.50;99.90;;;;;;5055960;28;20057;-57
2023/04/08 00:22:59;;;;;;;6.85;3.90;;;5.50;99.90;;;;;;5061442;28;20055;-38
2023/04/08 00:25:25;;;;;;;6.60;3.45;;;5.40;99.90;;;;;;5061409;28;20137;-38
2023/04/08 00:27:50;;;;;;;6.10;3.53;;;5.40;99.90;;;;;;5059426;28;20057;-38
2023/04/08 00:30:16;;;;;;;6.90;3.38;;;5.40;99.90;;;;;;5058858;28;20053;-57
2023/04/08 00:32:42;;;;;;;8.48;3.70;;;5.30;99.90;;;;;;5056995;28;20079;-38
2023/04/08 00:35:08;;;;;;;6.05;3.50;;;5.30;99.90;;;;;;5054422;28;20051;-42
2023/04/08 00:37:34;;;;;;;7.88;3.58;;;5.30;99.90;;;;;;5058450;28;20426;-38
2023/04/08 00:39:59;;;;;;;9.43;3.70;;;5.20;99.90;;;;;;5061192;28;20045;-38
2023/04/08 00:42:25;;;;;;;7.57;3.78;;;5.20;99.90;;;;;;5059913;28;20059;-38
2023/04/08 00:44:51;;;;;;;6.13;3.50;;;5.20;99.90;;;;;;5057418;28;20414;-38
2023/04/08 00:47:17;;;;;;;8.10;4.07;;;5.10;99.90;;;;;;5061296;28;20048;-38
2023/04/08 00:49:43;;;;;;;6.55;3.78;;;5.10;99.90;;;;;;5060496;28;20044;-38
2023/04/08 00:52:09;;;;;;;7.28;3.47;;;5.10;99.90;;;;;;5057978;28;20550;-38
2023/04/08 00:54:36;;;;;;;7.40;3.92;;;5.00;99.90;;;;;;5064754;28;20182;-38
2023/04/08 00:57:04;;;;;;;5.97;3.28;;;5.00;99.90;;;;;;5059626;28;20043;-38
2023/04/08 00:59:30;;;;;;;6.38;3.40;;;5.00;99.90;;;;;;5056312;28;20056;-38
2023/04/08 01:02:08;;;;;;;6.30;3.60;;;5.00;99.90;;;;;;5027136;28;20058;-38
2023/04/08 01:05:02;;;;;;;7.70;4.25;;;4.90;99.90;;;;;;5030507;28;20392;-38
2023/04/08 01:07:32;;;;;;;6.25;3.55;;;4.90;99.90;;;;;;5025695;28;20381;-38
2023/04/08 01:10:22;;;;;;;6.57;3.78;;;4.80;99.90;;;;;;5035041;28;20122;-38
2023/04/08 01:13:02;;;;;;;6.35;3.13;;;4.80;99.90;;;;;;5017221;28;20136;-38
2023/04/08 01:15:32;;;;;;;5.65;3.00;;;4.80;99.90;;;;;;5021129;28;20388;-38
2023/04/08 01:17:59;;;;;;;5.28;3.00;;;4.70;99.90;;;;;;5035862;28;20057;-38
2023/04/08 01:20:26;;;;;;;6.63;3.30;;;4.70;99.90;;;;;;5035174;28;20229;-39
2023/04/08 01:23:02;;;;;;;7.75;3.50;;;4.70;99.90;;;;;;5039132;28;20071;-38
2023/04/08 01:25:33;;;;;;;6.47;3.88;;;4.60;99.90;;;;;;5041095;28;20056;-38
2023/04/08 01:28:00;;;;;;;6.78;3.45;;;4.60;99.90;;;;;;5036621;28;20053;-38
2023/04/08 01:30:29;;;;;;;6.07;3.20;;;4.50;99.90;;;;;;5035120;28;20604;-37
2023/04/08 01:32:56;;;;;;;7.25;3.95;;;4.50;99.90;;;;;;5027319;28;20732;-39
2023/04/08 01:35:22;;;;;;;6.75;3.50;;;4.50;99.90;;;;;;5040735;28;20060;-38
2023/04/08 01:37:50;;;;;;;6.55;3.05;;;4.40;99.90;;;;;;5038966;28;20064;-38
2023/04/08 01:40:18;;;;;;;7.38;4.07;;;4.40;99.90;;;;;;5036758;28;20463;-37
2023/04/08 01:42:46;;;;;;;5.68;3.05;;;4.40;99.90;;;;;;5038494;28;20187;-38
2023/04/08 01:45:13;;;;;;;6.93;3.13;;;4.40;99.90;;;;;;5037408;28;20403;-38
2023/04/08 01:47:40;;;;;;;6.65;3.45;;;4.30;99.90;;;;;;5037020;28;20086;-37
2023/04/08 01:50:08;;;;;;;6.22;3.03;;;4.30;99.90;;;;;;5036744;28;20072;-38
2023/04/08 01:52:36;;;;;;;6.65;3.83;;;4.30;99.90;;;;;;5031001;28;20048;-38
2023/04/08 01:55:02;;;;;;;6.70;3.25;;;4.30;99.90;;;;;;5029169;28;20081;-38
2023/04/08 01:57:32;;;;;;;5.05;2.95;;;4.20;99.90;;;;;;5038113;28;20053;-38
2023/04/08 02:00:13;;;;;;;7.15;3.53;;;4.20;99.90;;;;;;5033318;28;20048;-38
2023/04/08 02:02:41;;;;;;;6.40;3.15;;;4.20;99.90;;;;;;5038620;28;20490;-38
2023/04/08 02:05:08;;;;;;;5.85;3.63;;;4.20;99.90;;;;;;5022211;28;20461;-38
2023/04/08 02:07:33;;;;;;;6.50;2.80;;;4.20;99.90;;;;;;5037459;28;20147;-38
2023/04/08 02:09:59;;;;;;;7.63;3.90;;;4.10;99.90;;;;;;5041689;28;20128;-38
2023/04/08 02:12:26;;;;;;;6.70;3.85;;;4.20;99.90;;;;;;5038853;28;20053;-39
2023/04/08 02:14:53;;;;;;;8.48;4.20;;;4.10;99.90;;;;;;5037005;28;20041;-38
2023/04/08 02:18:07;;;;;;;8.75;3.72;;;4.10;99.90;;;;;;5041983;28;20049;-39
2023/04/08 02:20:46;;;;;;;7.70;3.63;;;4.10;99.90;;;;;;5025943;28;20052;-38
2023/04/08 02:23:19;;;;;;;7.53;3.28;;;4.00;99.90;;;;;;5034960;28;20045;-38
2023/04/08 02:25:46;;;;;;;7.03;3.53;;;4.00;99.90;;;;;;5042232;28;20479;-38
2023/04/08 02:28:14;;;;;;;7.10;3.60;;;4.00;99.90;;;;;;5034732;28;20057;-39
2023/04/08 02:30:48;;;;;;;6.75;3.53;;;4.00;99.90;;;;;;5039681;28;20139;-39
2023/04/08 02:33:15;;;;;;;7.18;4.40;;;4.00;99.90;;;;;;5042397;28;20053;-50
2023/04/08 02:35:44;;;;;;;6.45;3.45;;;4.00;99.90;;;;;;5046203;28;20071;-38
2023/04/08 02:38:10;;;;;;;6.43;3.55;;;4.00;99.90;;;;;;5047557;28;20487;-39
2023/04/08 02:40:35;;;;;;;7.25;4.13;;;3.90;99.90;;;;;;5040694;28;20100;-38
2023/04/08 02:43:02;;;;;;;6.57;3.70;;;3.90;99.90;;;;;;5044734;28;20052;-38
2023/04/08 02:45:30;;;;;;;6.47;3.80;;;3.90;99.90;;;;;;5039903;28;20068;-39
2023/04/08 02:47:57;;;;;;;6.57;3.80;;;3.80;99.90;;;;;;5038466;28;20049;-37
2023/04/08 02:50:23;;;;;;;6.65;3.75;;;3.80;99.90;;;;;;5032659;28;20142;-38
2023/04/08 02:52:49;;;;;;;6.97;3.97;;;3.80;99.90;;;;;;5047098;28;20158;-37
2023/04/08 02:55:14;;;;;;;6.45;3.72;;;3.80;99.90;;;;;;5044485;28;20578;-37
2023/04/08 02:57:41;;;;;;;15.10;4.53;;;3.80;99.90;;;;;;5039024;28;20064;-37
2023/04/08 03:00:08;;;;;;;7.55;3.65;;;3.80;99.90;;;;;;5046388;28;20051;-38
2023/04/08 03:02:34;;;;;;;6.65;3.67;;;3.70;99.90;;;;;;5063267;28;20533;-37
2023/04/08 03:05:00;;;;;;;8.20;4.30;;;3.70;99.90;;;;;;5064498;28;20048;-38
2023/04/08 03:07:26;;;;;;;7.70;4.22;;;3.70;99.90;;;;;;5063654;28;20041;-38
2023/04/08 03:09:54;;;;;;;8.27;4.60;;;3.70;99.90;;;;;;5059977;28;20052;-37
2023/04/08 03:12:20;;;;;;;7.97;4.38;;;3.70;99.90;;;;;;5043696;28;20044;-38
2023/04/08 03:14:46;;;;;;;7.95;3.90;;;3.70;99.90;;;;;;5045133;28;20049;-37
2023/04/08 03:17:12;;;;;;;8.45;4.82;;;3.60;99.90;;;;;;5059316;28;20391;-37
2023/04/08 03:19:37;;;;;;;8.15;4.28;;;3.60;99.90;;;;;;5058973;28;20095;-38
2023/04/08 03:22:03;;;;;;;8.05;3.95;;;3.60;99.90;;;;;;5058186;28;20051;-37
2023/04/08 03:24:29;;;;;;;11.50;4.30;;;3.60;99.90;;;;;;5062456;28;20491;-38
2023/04/08 03:26:55;;;;;;;8.75;4.80;;;3.60;99.90;;;;;;5058989;28;20076;-38
2023/04/08 03:29:20;;;;;;;8.02;4.22;;;3.60;99.90;;;;;;5061896;28;20113;-37
2023/04/08 03:31:46;;;;;;;9.50;4.70;;;3.60;99.90;;;;;;5061100;28;20095;-37
2023/04/08 03:34:11;;;;;;;10.25;5.28;;;3.50;99.90;;;;;;5057955;28;20258;-38
2023/04/08 03:36:37;;;;;;;8.40;4.40;;;3.50;99.90;;;;;;5063304;28;20056;-38
2023/04/08 03:39:03;;;;;;;8.38;4.72;;;3.50;99.90;;;;;;5061542;28;20079;-37
2023/04/08 03:41:29;;;;;;;8.38;4.53;;;3.50;99.90;;;;;;5059836;28;20139;-37
2023/04/08 03:43:55;;;;;;;6.82;3.70;;;3.50;99.90;;;;;;5047465;28;20056;-37
2023/04/08 03:46:21;;;;;;;10.75;5.30;;;3.40;99.90;;;;;;5062314;28;20805;-37
2023/04/08 03:48:47;;;;;;;11.23;4.90;;;3.40;99.90;;;;;;5063277;28;20051;-38
2023/04/08 03:51:13;;;;;;;7.43;3.85;;;3.40;99.90;;;;;;5062372;28;20056;-38
2023/04/08 03:53:38;;;;;;;9.60;5.30;;;3.30;99.90;;;;;;5061077;28;20394;-38
2023/04/08 03:56:04;;;;;;;9.90;5.38;;;3.30;99.90;;;;;;5063872;28;20083;-38
2023/04/08 03:58:30;;;;;;;9.93;5.32;;;3.30;99.90;;;;;;5061236;28;20133;-38
2023/04/08 04:00:56;;;;;;;9.55;5.07;;;3.30;99.90;;;;;;5059647;28;20490;-38
2023/04/08 04:03:22;;;;;;;8.57;4.45;;;3.30;99.90;;;;;;5062878;28;20048;-38
2023/04/08 04:05:48;;;;;;;10.10;5.07;;;3.30;99.90;;;;;;5061840;28;20053;-38
2023/04/08 04:08:14;;;;;;;10.23;5.30;;;3.20;99.90;;;;;;5060819;28;20060;-38
2023/04/08 04:10:39;;;;;;;11.40;5.78;;;3.20;99.90;;;;;;5058250;28;20056;-38
2023/04/08 04:13:05;;;;;;;12.52;6.05;;;3.20;99.90;;;;;;5057692;28;20464;-37
2023/04/08 04:15:31;;;;;;;11.75;6.20;;;3.20;99.90;;;;;;5057788;28;20087;-38
2023/04/08 04:17:57;;;;;;;15.77;5.68;;;3.10;99.90;;;;;;5061117;28;20049;-37
2023/04/08 04:20:22;;;;;;;9.27;5.30;;;3.10;99.90;;;;;;5059800;28;20106;-37
2023/04/08 04:22:48;;;;;;;10.00;5.70;;;3.10;99.90;;;;;;5062087;28;20041;-37
2023/04/08 04:25:14;;;;;;;9.65;5.32;;;3.10;99.90;;;;;;5057514;28;20478;-37
2023/04/08 04:27:39;;;;;;;9.70;4.95;;;3.00;99.90;;;;;;5059222;28;20148;-38
2023/04/08 04:30:06;;;;;;;13.57;5.97;;;3.00;99.90;;;;;;5056925;28;20159;-38
2023/04/08 04:32:32;;;;;;;9.63;5.40;;;3.00;99.90;;;;;;5060452;28;20061;-37
2023/04/08 04:34:57;;;;;;;7.93;4.85;;;3.00;99.90;;;;;;5063642;28;20106;-38
2023/04/08 04:37:23;;;;;;;9.45;5.72;;;3.00;99.90;;;;;;5061810;28;20048;-37
2023/04/08 04:39:49;;;;;;;8.80;4.90;;;3.00;99.90;;;;;;5059516;28;20352;-37
2023/04/08 04:42:14;;;;;;;10.13;5.30;;;2.90;99.90;;;;;;5064324;28;20048;-37
2023/04/08 04:44:40;;;;;;;9.55;5.80;;;2.90;99.90;;;;;;5059712;28;20064;-37
2023/04/08 04:47:06;;;;;;;10.00;5.75;;;2.90;99.90;;;;;;5063045;28;20102;-38
2023/04/08 04:49:31;;;;;;;9.77;5.32;;;2.90;99.90;;;;;;5059443;28;20159;-37
2023/04/08 04:51:57;;;;;;;10.45;6.05;;;2.90;99.90;;;;;;5062387;28;20061;-38
2023/04/08 04:54:22;;;;;;;10.25;6.03;;;2.80;99.90;;;;;;5059518;28;20083;-38
2023/04/08 04:56:48;;;;;;;9.48;5.35;;;2.80;99.90;;;;;;5064708;28;20051;-37
2023/04/08 04:59:14;;;;;;;9.32;5.63;;;2.80;99.90;;;;;;5064865;28;20468;-37
2023/04/08 05:01:39;;;;;;;10.20;6.57;;;2.80;99.90;;;;;;5062189;28;20080;-38
2023/04/08 05:04:06;;;;;;;12.60;6.00;;;2.80;99.90;;;;;;5047117;28;20055;-40
2023/04/08 05:06:32;;;;;;;10.68;5.43;;;2.80;99.90;;;;;;5054727;28;20103;-37
2023/04/08 05:08:58;;;;;;;14.98;6.28;;;2.90;99.90;;;;;;5061730;28;20148;-38
2023/04/08 05:11:23;;;;;;;14.13;7.15;;;2.80;99.90;;;;;;5059545;28;20127;-38
2023/04/08 05:13:49;;;;;;;11.88;5.47;;;2.90;99.90;;;;;;5060072;28;20075;-38
2023/04/08 05:16:15;;;;;;;10.63;5.47;;;2.90;99.90;;;;;;5058162;28;20056;-38
2023/04/08 05:18:41;;;;;;;10.85;6.13;;;2.90;99.90;;;;;;5058435;28;20453;-38
2023/04/08 05:21:07;;;;;;;13.73;7.28;;;2.90;99.90;;;;;;5058904;28;20045;-38
2023/04/08 05:23:33;;;;;;;10.68;5.53;;;2.90;99.90;;;;;;5054725;28;20141;-38
2023/04/08 05:25:59;;;;;;;13.60;6.45;;;2.80;99.90;;;;;;5058867;28;20060;-38
2023/04/08 05:28:26;;;;;;;10.82;6.20;;;2.90;99.90;;;;;;5058636;28;20052;-38
2023/04/08 05:30:52;;;;;;;13.55;6.85;;;2.90;99.90;;;;;;5063672;28;20080;-38
2023/04/08 05:33:18;;;;;;;11.43;6.25;;;2.80;99.90;;;;;;5057857;28;20409;-38
2023/04/08 05:35:44;;;;;;;12.23;6.28;;;2.90;99.90;;;;;;5057185;28;20048;-38
2023/04/08 05:38:10;;;;;;;11.98;6.00;;;2.90;99.90;;;;;;5062832;28;20165;-38
2023/04/08 05:40:36;;;;;;;11.75;6.93;;;2.90;99.90;;;;;;5061349;28;20048;-38
2023/04/08 05:43:02;;;;;;;13.75;6.70;;;3.00;99.90;;;;;;5064594;28;20107;-38
2023/04/08 05:45:28;;;;;;;12.55;7.40;;;3.00;99.90;;;;;;5057299;28;20056;-37
2023/04/08 05:47:53;;;;;;;14.27;8.07;;;3.10;99.90;;;;;;5055403;28;20048;-37
2023/04/08 05:50:19;;;;;;;14.65;6.93;;;3.10;99.90;;;;;;5057515;28;20132;-38
2023/04/08 05:52:45;;;;;;;10.50;6.25;;;3.20;99.90;;;;;;5056095;28;20044;-38
2023/04/08 05:55:14;;;;;;;13.05;6.32;;;3.30;99.90;;;;;;5057492;28;20056;-38
2023/04/08 05:57:40;;;;;;;11.93;7.38;;;3.30;99.90;;;;;;5057257;28;20502;-37
2023/04/08 06:00:08;;;;;;;13.40;7.90;;;3.50;99.90;;;;;;5042973;28;20090;-37
2023/04/08 06:02:35;;;;;;;11.07;6.18;;;3.50;99.90;;;;;;5058396;28;20526;-38
2023/04/08 06:05:01;;;;;;;15.20;7.93;;;3.60;99.90;;;;;;5058620;28;20075;-37
2023/04/08 06:07:26;;;;;;;14.52;6.65;;;3.70;99.90;;;;;;5057157;28;20186;-37
2023/04/08 06:09:52;;;;;;;12.82;6.55;;;3.80;99.90;;;;;;5057673;28;20498;-37
2023/04/08 06:12:18;;;;;;;12.57;7.13;;;3.80;99.90;;;;;;5057156;28;20055;-37
2023/04/08 06:14:43;;;;;;;14.88;8.50;;;3.90;99.90;;;;;;5059275;28;20249;-37
2023/04/08 06:17:09;;;;;;;14.80;7.40;;;3.90;99.90;;;;;;5054369;28;20052;-43
2023/04/08 06:19:35;;;;;;;14.50;7.75;;;4.00;99.90;;;;;;5054932;28;20578;-37
2023/04/08 06:22:01;;;;;;;15.10;8.07;;;4.10;99.90;;;;;;5056693;28;20638;-37
2023/04/08 06:24:28;;;;;;;13.02;7.70;;;4.20;99.90;;;;;;5058056;28;20084;-37
2023/04/08 06:26:55;;;;;;;16.33;9.02;;;4.30;99.90;;;;;;5039822;28;20056;-37
2023/04/08 06:29:23;;;;;;;12.05;6.45;;;4.40;99.90;;;;;;5058628;28;20075;-37
2023/04/08 06:31:49;;;;;;;15.02;7.95;;;4.40;99.90;;;;;;5058723;28;20063;-37
2023/04/08 06:34:15;;;;;;;12.23;6.70;;;4.40;99.90;;;;;;5062316;28;20060;-37
2023/04/08 06:36:41;;;;;;;14.25;7.72;;;4.50;99.90;;;;;;5059799;28;20040;-37
2023/04/08 06:39:07;;;;;;;15.32;8.40;;;4.50;99.90;;;;;;5057615;28;20056;-37
2023/04/08 06:41:32;;;;;;;13.65;7.88;;;4.40;99.90;;;;;;5063600;28;20059;-37
2023/04/08 06:43:58;;;;;;;14.43;9.05;;;4.40;99.90;;;;;;5054769;28;20140;-39
2023/04/08 06:46:24;;;;;;;16.35;8.90;;;4.40;99.90;;;;;;5058567;28;20056;-36
2023/04/08 06:48:50;;;;;;;14.05;7.47;;;4.50;99.90;;;;;;5057078;28;20060;-38
2023/04/08 06:51:15;;;;;;;13.98;8.48;;;4.50;99.90;;;;;;5058977;28;20063;-39
2023/04/08 06:53:41;;;;;;;15.98;8.75;;;4.60;99.90;;;;;;5060374;28;20143;-38
2023/04/08 06:56:07;;;;;;;13.30;7.55;;;4.70;99.90;;;;;;5057579;28;20061;-37
2023/04/08 06:58:32;;;;;;;16.05;8.85;;;4.80;99.90;;;;;;5060318;28;20205;-36
2023/04/08 07:00:59;;;;;;;14.63;8.70;;;4.80;99.90;;;;;;5062413;28;20059;-36
2023/04/08 07:03:25;;;;;;;15.82;8.07;;;5.00;99.90;;;;;;5059056;28;20180;-36
2023/04/08 07:05:51;;;;;;;15.27;8.38;;;5.10;99.90;;;;;;5055120;28;20139;-37
2023/04/08 07:08:17;;;;;;;16.05;9.23;;;5.20;99.90;;;;;;5059334;28;20076;-36
2023/04/08 07:10:43;;;;;;;13.30;7.75;;;5.30;99.90;;;;;;5057421;28;20578;-36
2023/04/08 07:13:09;;;;;;;14.00;8.65;;;5.40;99.90;;;;;;5058762;28;20063;-37
2023/04/08 07:15:36;;;;;;;13.13;7.82;;;5.50;99.90;;;;;;5061018;28;21149;-42
2023/04/08 07:18:03;;;;;;;16.25;8.68;;;5.60;99.90;;;;;;5060043;28;20062;-37
2023/04/08 07:20:29;;;;;;;15.07;8.48;;;5.70;99.90;;;;;;5063860;28;20116;-37
2023/04/08 07:22:55;;;;;;;17.08;8.27;;;5.80;99.90;;;;;;5057925;28;20048;-38
2023/04/08 07:25:20;;;;;;;14.65;8.55;;;5.90;99.90;;;;;;5056638;28;20557;-37
2023/04/08 07:27:46;;;;;;;16.85;9.25;;;6.00;99.90;;;;;;5056498;28;20044;-38
2023/04/08 07:30:12;;;;;;;18.70;9.93;;;6.10;99.90;;;;;;5054796;28;20463;-41
2023/04/08 07:32:37;;;;;;;12.73;7.35;;;6.20;99.90;;;;;;5059307;28;20053;-38
2023/04/08 07:35:03;;;;;;;14.48;7.93;;;6.30;99.90;;;;;;5059681;28;20450;-38
2023/04/08 07:37:29;;;;;;;15.13;7.90;;;6.40;99.90;;;;;;5063500;28;20048;-37
2023/04/08 07:39:55;;;;;;;14.35;8.15;;;6.50;99.90;;;;;;5061572;28;20198;-37
2023/04/08 07:42:21;;;;;;;16.35;9.10;;;6.60;99.90;;;;;;5058396;28;20490;-38
2023/04/08 07:44:47;;;;;;;14.15;8.95;;;6.70;99.90;;;;;;5061138;28;20052;-37
2023/04/08 07:47:13;;;;;;;16.13;9.23;;;6.70;99.90;;;;;;5059866;28;20472;-38
2023/04/08 07:49:39;;;;;;;14.88;8.70;;;6.80;99.90;;;;;;5062480;28;20059;-38
2023/04/08 07:52:05;;;;;;;18.15;10.38;;;6.90;99.90;;;;;;5059563;28;20060;-38
2023/04/08 07:54:33;;;;;;;19.35;9.73;;;7.00;99.90;;;;;;5065599;28;20054;-37
2023/04/08 07:57:00;;;;;;;16.25;9.27;;;7.10;99.90;;;;;;5062447;28;20084;-38
2023/04/08 07:59:26;;;;;;;18.48;9.77;;;7.10;99.90;;;;;;5056775;28;20234;-38
2023/04/08 08:01:51;;;;;;;16.10;8.32;;;7.20;99.90;;;;;;5060348;28;20057;-38
2023/04/08 08:04:17;;;;;;;16.20;9.20;;;7.20;99.90;;;;;;5055979;28;20514;-37
2023/04/08 08:06:43;;;;;;;16.17;9.70;;;7.30;99.90;;;;;;5047782;28;20547;-39
2023/04/08 08:09:09;;;;;;;21.10;11.30;;;7.30;99.90;;;;;;5061900;28;20064;-37
2023/04/08 08:11:34;;;;;;;17.92;9.30;;;7.30;99.90;;;;;;5036080;28;20485;-38
2023/04/08 08:14:00;;;;;;;17.17;10.32;;;7.20;99.90;;;;;;5057203;28;20059;-38
2023/04/08 08:16:30;;;;;;;16.92;9.82;;;7.20;99.90;;;;;;5064018;28;20062;-39
2023/04/08 08:18:57;;;;;;;19.80;9.75;;;7.20;99.90;;;;;;5059344;28;20143;-37
2023/04/08 08:21:22;;;;;;;13.50;8.38;;;7.30;99.90;;;;;;5057271;28;20170;-38
2023/04/08 08:23:50;;;;;;;13.93;7.85;;;7.40;99.90;;;;;;5041194;28;20892;-38
2023/04/08 08:26:16;;;;;;;14.60;7.75;;;7.50;99.90;;;;;;5059945;28;20098;-38
2023/04/08 08:28:42;;;;;;;15.25;9.38;;;7.60;99.90;;;;;;5066997;28;20052;-38
2023/04/08 08:31:07;;;;;;;16.13;9.10;;;7.70;99.90;;;;;;5051478;28;20049;-38
2023/04/08 08:33:33;;;;;;;17.13;9.50;;;7.90;99.90;;;;;;5058347;28;20105;-44
2023/04/08 08:35:59;;;;;;;16.77;9.23;;;8.00;99.90;;;;;;5059522;28;20044;-44
2023/04/08 08:38:25;;;;;;;13.48;7.78;;;8.00;99.90;;;;;;5056606;28;20402;-43
2023/04/08 08:40:55;;;;;;;20.50;9.85;;;8.10;99.90;;;;;;5064634;28;20072;-41
2023/04/08 08:43:22;;;;;;;13.82;8.00;;;8.30;99.90;;;;;;5060377;28;20049;-42
2023/04/08 08:45:47;;;;;;;13.07;6.75;;;8.60;99.90;;;;;;5067154;28;20044;-47
2023/04/08 08:48:13;;;;;;;14.02;8.38;;;8.70;99.90;;;;;;5044187;28;20098;-42
2023/04/08 08:50:39;;;;;;;14.60;8.35;;;8.90;99.90;;;;;;5058279;28;20068;-43
2023/04/08 08:53:04;;;;;;;15.63;8.82;;;9.10;99.90;;;;;;5061493;28;20383;-43
2023/04/08 08:55:34;;;;;;;14.05;7.53;;;9.20;99.90;;;;;;5060773;28;20041;-43
2023/04/08 08:58:01;;;;;;;14.60;7.57;;;9.10;99.90;;;;;;5062108;28;20545;-44
2023/04/08 09:00:37;;;;;;;15.75;9.82;;;9.10;99.90;;;;;;5055665;28;20136;-43
2023/04/08 09:03:24;;;;;;;17.50;9.20;;;9.10;99.90;;;;;;5053093;28;20040;-42
2023/04/08 09:05:52;;;;;;;13.38;8.48;;;9.10;99.90;;;;;;5059952;28;20098;-45
2023/04/08 09:08:28;;;;;;;13.43;7.40;;;9.20;99.90;;;;;;5061158;28;20076;-43
2023/04/08 09:10:55;;;;;;;12.82;7.40;;;9.40;99.90;;;;;;5037161;28;20126;-42
2023/04/08 09:13:25;;;;;;;12.32;7.07;;;9.50;99.90;;;;;;5059973;28;20056;-44
2023/04/08 09:16:02;;;;;;;14.15;7.10;;;9.60;99.90;;;;;;5058643;28;20052;-44
2023/04/08 09:18:28;;;;;;;15.27;7.90;;;9.60;99.90;;;;;;5057814;28;20150;-45
2023/04/08 09:20:54;;;;;;;15.38;7.82;;;9.70;99.90;;;;;;5037904;28;20474;-46
2023/04/08 09:23:19;;;;;;;14.65;8.38;;;9.80;99.90;;;;;;5061742;28;20782;-46
2023/04/08 09:25:45;;;;;;;10.98;6.65;;;9.90;99.90;;;;;;5060093;28;20140;-42
2023/04/08 09:28:20;;;;;;;11.52;7.05;;;10.00;99.90;;;;;;5059183;28;20053;-43
2023/04/08 09:30:46;;;;;;;14.07;7.53;;;10.10;99.90;;;;;;5064857;28;20481;-42
2023/04/08 09:33:12;;;;;;;12.40;7.00;;;10.20;99.90;;;;;;5057146;28;20048;-44
2023/04/08 09:35:38;;;;;;;12.60;7.40;;;10.30;99.90;;;;;;5063143;28;20040;-44
2023/04/08 09:38:04;;;;;;;13.35;7.50;;;10.50;99.90;;;;;;5057455;28;20063;-43
2023/04/08 09:40:34;;;;;;;13.85;7.63;;;10.60;99.90;;;;;;5060388;28;20456;-44
2023/04/08 09:43:04;;;;;;;12.68;7.90;;;10.70;99.90;;;;;;5058953;28;20141;-45
2023/04/08 09:45:35;;;;;;;11.98;6.97;;;10.70;99.90;;;;;;5053763;28;20036;-43
2023/04/08 09:48:11;;;;;;;12.25;6.10;;;10.80;99.90;;;;;;5052381;28;20052;-43
2023/04/08 09:50:45;;;;;;;12.15;6.90;;;10.90;99.90;;;;;;5058806;28;20537;-43
2023/04/08 09:53:21;;;;;;;10.88;6.80;;;11.00;99.90;;;;;;5057917;28;20105;-43
2023/04/08 09:55:54;;;;;;;10.85;6.43;;;11.00;99.90;;;;;;5061607;28;20052;-44
2023/04/08 09:58:30;;;;;;;11.95;7.28;;;11.00;99.90;;;;;;5065902;28;20106;-46
2023/04/08 10:00:56;;;;;;;11.45;6.70;;;11.10;99.90;;;;;;5052299;28;20060;-42
2023/04/08 10:03:52;;;;;;;11.30;6.63;;;11.20;99.90;;;;;;5056346;28;20052;-45
2023/04/08 10:06:20;;;;;;;13.13;6.80;;;11.20;99.90;;;;;;5051551;28;20093;-45
2023/04/08 10:08:46;;;;;;;12.02;6.10;;;11.10;99.90;;;;;;5058835;28;20071;-46
2023/04/08 10:11:15;;;;;;;9.73;6.57;;;11.10;99.90;;;;;;5059002;28;20072;-46
2023/04/08 10:13:41;;;;;;;12.10;7.25;;;11.20;99.90;;;;;;5059907;28;20467;-45
2023/04/08 10:16:17;;;;;;;15.25;8.05;;;11.30;99.90;;;;;;5057408;28;20071;-42
2023/04/08 10:18:43;;;;;;;10.85;6.57;;;11.50;99.90;;;;;;5060315;28;20041;-41
2023/04/08 10:21:31;;;;;;;12.23;8.00;;;11.60;99.90;;;;;;5056800;28;20482;-43
2023/04/08 10:23:59;;;;;;;13.73;7.80;;;11.80;99.90;;;;;;5055855;28;20053;-46
2023/04/08 10:26:33;;;;;;;12.57;7.63;;;11.90;99.90;;;;;;5058024;28;20052;-43
2023/04/08 10:29:29;;;;;;;10.50;6.47;;;12.00;99.90;;;;;;5043020;28;20593;-43
2023/04/08 10:31:56;;;;;;;10.85;6.93;;;12.00;99.90;;;;;;5053339;28;20371;-36
2023/04/08 10:34:26;;;;;;;14.07;7.93;;;12.20;99.90;;;;;;5047626;28;20132;-37
2023/04/08 10:36:54;;;;;;;12.77;7.65;;;12.30;99.90;;;;;;5054267;28;20045;-37
2023/04/08 10:39:21;;;;;;;14.77;7.72;;;12.40;99.90;;;;;;5061532;28;20068;-36
2023/04/08 10:41:48;;;;;;;11.93;7.40;;;12.60;99.90;;;;;;5057501;28;20481;-37
2023/04/08 10:44:18;;;;;;;10.70;7.15;;;12.90;99.90;;;;;;5049813;28;20271;-37
2023/04/08 10:46:45;;;;;;;11.20;7.53;;;13.10;99.90;;;;;;5031087;28;20402;-37
2023/04/08 10:49:11;;;;;;;13.55;8.35;;;13.30;99.90;;;;;;5054700;28;20053;-37
2023/04/08 10:51:38;;;;;;;12.60;7.97;;;13.40;99.90;;;;;;5057078;28;20547;-37
2023/04/08 10:54:12;;;;;;;14.60;8.05;;;13.40;99.90;;;;;;5063185;28;20084;-46
2023/04/08 10:56:47;;;;;;;10.52;7.20;;;13.40;99.90;;;;;;5054082;28;20167;-41
2023/04/08 10:59:16;;;;;;;11.02;7.80;;;13.40;99.90;;;;;;5048176;28;20059;-39
2023/04/08 11:01:44;;;;;;;11.70;7.85;;;13.40;99.90;;;;;;5058857;28;20053;-37
2023/04/08 11:04:14;;;;;;;11.10;7.45;;;13.40;99.90;;;;;;5058978;28;20052;-37
2023/04/08 11:06:42;;;;;;;10.43;6.65;;;13.30;99.90;;;;;;5063918;28;20197;-36
2023/04/08 11:09:08;;;;;;;10.80;7.13;;;13.40;99.90;;;;;;5066526;28;20048;-37
2023/04/08 11:11:35;;;;;;;10.98;6.28;;;13.40;99.90;;;;;;5063994;28;20055;-37
2023/04/08 11:14:01;;;;;;;9.48;6.38;;;13.60;99.90;;;;;;5051202;28;20110;-46
2023/04/08 11:16:27;;;;;;;10.52;7.32;;;13.80;99.90;;;;;;5065555;28;20061;-37
2023/04/08 11:18:54;;;;;;;10.27;7.07;;;13.90;99.90;;;;;;5057832;28;20059;-36
2023/04/08 11:21:22;;;;;;;10.77;6.85;;;13.90;99.90;;;;;;5057857;28;20049;-37
2023/04/08 11:23:51;;;;;;;12.23;6.18;;;14.00;99.90;;;;;;5053580;28;20565;-37
2023/04/08 11:26:18;;;;;;;10.15;7.00;;;14.10;99.90;;;;;;5063234;28;20055;-37
2023/04/08 11:28:45;;;;;;;10.45;6.85;;;14.30;99.90;;;;;;5060865;28;20052;-37
2023/04/08 11:31:12;;;;;;;9.10;6.47;;;14.50;99.90;;;;;;5066926;28;20140;-37
2023/04/08 11:33:44;;;;;;;8.77;6.25;;;14.60;99.90;;;;;;5059755;28;20053;-37
2023/04/08 11:36:11;;;;;;;11.07;6.95;;;14.50;99.90;;;;;;5055034;28;20105;-38
2023/04/08 11:38:40;;;;;;;10.85;7.05;;;14.30;99.90;;;;;;5067108;28;20056;-37
2023/04/08 11:41:06;;;;;;;9.10;6.25;;;14.30;99.90;;;;;;5067021;28;20051;-47
2023/04/08 11:43:32;;;;;;;9.70;7.07;;;14.20;99.90;;;;;;5066029;28;20056;-37
2023/04/08 11:45:58;;;;;;;11.02;6.30;;;14.30;99.90;;;;;;5071290;28;20052;-38
2023/04/08 11:48:24;;;;;;;10.40;6.65;;;14.40;99.90;;;;;;5062275;28;20049;-36
2023/04/08 11:51:03;;;;;;;11.48;6.35;;;14.50;99.90;;;;;;5061970;28;20502;-38
2023/04/08 11:53:29;;;;;;;11.13;6.85;;;14.70;99.90;;;;;;5063862;28;20059;-37
2023/04/08 11:55:54;;;;;;;8.75;5.65;;;14.80;99.90;;;;;;5067430;28;20048;-38
2023/04/08 11:58:20;;;;;;;9.52;6.80;;;14.90;99.90;;;;;;5067672;28;20044;-37
2023/04/08 12:00:46;;;;;;;9.45;5.85;;;14.90;99.90;;;;;;5064643;28;20111;-37
2023/04/08 12:03:12;;;;;;;10.25;6.90;;;15.00;99.90;;;;;;5068529;28;20481;-37
2023/04/08 12:05:38;;;;;;;9.80;6.45;;;15.20;99.90;;;;;;5065973;28;20120;-37
2023/04/08 12:08:04;;;;;;;10.43;6.35;;;15.30;99.90;;;;;;5069901;28;20132;-37
2023/04/08 12:10:30;;;;;;;11.23;7.53;;;15.40;99.90;;;;;;5062218;28;20562;-37
2023/04/08 12:12:55;;;;;;;9.57;6.45;;;15.40;99.90;;;;;;5059108;28;20056;-37
2023/04/08 12:15:21;;;;;;;9.55;6.78;;;15.50;99.90;;;;;;5061747;28;20105;-38
2023/04/08 12:17:47;;;;;;;10.05;6.53;;;15.50;99.90;;;;;;5069534;28;20048;-37
2023/04/08 12:20:14;;;;;;;11.05;5.90;;;15.60;99.90;;;;;;5044646;28;20052;-45
2023/04/08 12:22:40;;;;;;;9.50;6.10;;;15.60;99.90;;;;;;5060466;28;20106;-37
2023/04/08 12:25:06;;;;;;;10.15;7.38;;;15.70;99.90;;;;;;5061042;28;20044;-36
2023/04/08 12:27:32;;;;;;;11.57;7.07;;;15.80;99.90;;;;;;5059600;28;20171;-37
2023/04/08 12:29:58;;;;;;;9.55;6.75;;;15.80;99.90;;;;;;5055422;28;20478;-56
2023/04/08 12:32:25;;;;;;;11.25;7.30;;;15.90;99.90;;;;;;5054748;28;20044;-40
2023/04/08 12:34:51;;;;;;;7.97;5.55;;;15.90;99.90;;;;;;5057495;28;20603;-37
2023/04/08 12:37:17;;;;;;;9.70;6.38;;;16.10;99.90;;;;;;5058906;28;20416;-37
2023/04/08 12:39:42;;;;;;;9.50;5.40;;;16.20;99.90;;;;;;5055519;28;20062;-37
2023/04/08 12:42:08;;;;;;;9.13;6.95;;;16.10;99.90;;;;;;5061551;28;20052;-37
2023/04/08 12:44:34;;;;;;;9.85;7.00;;;16.30;99.90;;;;;;5054586;28;20717;-37
2023/04/08 12:46:59;;;;;;;9.02;6.35;;;16.50;99.90;;;;;;5054563;28;20051;-37
2023/04/08 12:49:25;;;;;;;9.25;6.68;;;16.70;99.90;;;;;;5063444;28;20059;-37